createdAt,value
2022-07-31T00:00:52.879Z,74.85
2022-07-31T00:05:54.488Z,75.99
2022-07-31T00:10:56.389Z,75.68
2022-07-31T00:15:58.010Z,75.82
2022-07-31T00:21:00.127Z,75.83
2022-07-31T00:26:01.773Z,75.95
2022-07-31T00:31:03.988Z,75.31
2022-07-31T00:36:05.654Z,76.13
2022-07-31T00:41:07.230Z,75.83
2022-07-31T00:46:14.621Z,75.78
2022-07-31T00:51:16.427Z,76.15
2022-07-31T00:56:18.157Z,76.93
2022-07-31T01:01:20.303Z,76.55
2022-07-31T01:06:22.021Z,77.53
2022-07-31T01:11:36.349Z,77.49
2022-07-31T01:16:45.270Z,78.06
2022-07-31T01:22:33.905Z,78.18
2022-07-31T01:28:00.996Z,77.90
2022-07-31T01:33:08.437Z,78.46
2022-07-31T01:38:28.448Z,78.11
2022-07-31T01:43:33.994Z,78.20
2022-07-31T01:48:38.372Z,78.30
2022-07-31T01:53:41.045Z,78.31
2022-07-31T01:58:43.093Z,78.74
2022-07-31T02:04:11.323Z,78.47
2022-07-31T02:09:15.483Z,78.34
2022-07-31T02:14:18.412Z,79.67
2022-07-31T02:19:21.422Z,78.78
2022-07-31T02:24:24.887Z,79.27
2022-07-31T02:29:28.356Z,79.51
2022-07-31T02:34:31.091Z,79.77
2022-07-31T02:39:34.509Z,79.62
2022-07-31T02:44:37.704Z,79.70
2022-07-31T02:49:42.036Z,80.21
2022-07-31T02:54:44.487Z,79.66
2022-07-31T02:59:46.074Z,79.16
2022-07-31T03:04:48.074Z,80.28
2022-07-31T03:09:49.710Z,79.55
2022-07-31T03:15:13.174Z,79.71
2022-07-31T03:20:15.897Z,80.21
2022-07-31T03:25:21.586Z,80.16
2022-07-31T03:30:25.246Z,81.34
2022-07-31T03:35:29.756Z,79.45
2022-07-31T03:40:31.592Z,80.34
2022-07-31T03:45:34.931Z,79.92
2022-07-31T03:50:38.362Z,80.19
2022-07-31T03:55:40.594Z,81.27
2022-07-31T04:00:44.173Z,80.12
2022-07-31T04:05:46.204Z,80.49
2022-07-31T04:10:48.551Z,80.72
2022-07-31T04:15:54.147Z,80.21
2022-07-31T04:20:55.787Z,80.88
2022-07-31T04:25:58.007Z,79.00
2022-07-31T04:31:06.496Z,78.88
2022-07-31T04:36:29.254Z,78.28
2022-07-31T04:41:33.481Z,79.11
2022-07-31T04:46:35.567Z,78.10
2022-07-31T04:51:37.221Z,78.35
2022-07-31T04:56:43.523Z,76.58
2022-07-31T05:01:45.434Z,75.49
2022-07-31T05:06:51.242Z,75.25
2022-07-31T05:11:53.549Z,75.68
2022-07-31T05:16:56.380Z,74.90
2022-07-31T05:22:02.392Z,73.95
2022-07-31T05:27:04.830Z,74.12
2022-07-31T05:32:06.739Z,73.63
2022-07-31T05:37:09.600Z,72.84
2022-07-31T05:42:14.639Z,71.29
2022-07-31T05:47:40.055Z,71.21
2022-07-31T05:52:42.954Z,68.56
2022-07-31T05:57:55.538Z,67.65
2022-07-31T06:02:57.161Z,66.89
2022-07-31T06:08:18.819Z,65.50
2022-07-31T06:13:27.520Z,64.63
2022-07-31T06:18:29.206Z,64.04
2022-07-31T06:23:32.111Z,63.57
2022-07-31T06:29:00.778Z,62.94
2022-07-31T06:34:02.387Z,62.23
2022-07-31T06:39:16.431Z,62.14
2022-07-31T06:44:54.051Z,61.27
2022-07-31T06:50:14.308Z,60.65
2022-07-31T06:55:23.218Z,60.85
2022-07-31T07:00:25.084Z,60.52
2022-07-31T07:05:26.683Z,59.80
2022-07-31T07:10:30.807Z,59.70
2022-07-31T07:15:35.213Z,59.29
2022-07-31T07:20:37.168Z,58.95
2022-07-31T07:25:38.868Z,58.92
2022-07-31T07:30:43.656Z,59.07
2022-07-31T07:35:47.411Z,58.96
2022-07-31T07:40:52.422Z,59.01
2022-07-31T07:45:54.056Z,58.61
2022-07-31T07:50:55.707Z,58.70
2022-07-31T07:56:04.036Z,58.35
2022-07-31T08:01:26.228Z,58.64
2022-07-31T08:06:32.793Z,58.87
2022-07-31T08:11:34.467Z,58.92
2022-07-31T08:16:54.366Z,58.61
2022-07-31T08:21:56.283Z,58.85
2022-07-31T08:27:17.601Z,57.94
2022-07-31T08:32:25.737Z,58.06
2022-07-31T08:38:03.666Z,57.59
2022-07-31T08:44:01.471Z,57.62
2022-07-31T08:48:40.799Z,57.32
2022-07-31T08:53:43.164Z,56.66
2022-07-31T08:58:55.517Z,56.41
2022-07-31T09:03:58.819Z,57.01
2022-07-31T09:09:01.047Z,57.01
2022-07-31T09:14:04.457Z,56.48
2022-07-31T09:19:52.720Z,56.06
2022-07-31T09:24:40.121Z,54.78
2022-07-31T09:29:44.607Z,54.47
2022-07-31T09:35:13.283Z,54.65
2022-07-31T09:40:16.021Z,53.67
2022-07-31T09:45:24.268Z,53.43
2022-07-31T09:50:26.923Z,52.72
2022-07-31T09:55:29.068Z,52.94
2022-07-31T10:00:30.763Z,52.83
2022-07-31T10:05:33.618Z,51.17
2022-07-31T10:10:37.392Z,50.77
2022-07-31T10:16:00.024Z,51.78
2022-07-31T10:21:29.634Z,50.63
2022-07-31T10:27:01.241Z,50.87
2022-07-31T10:32:04.167Z,50.90
2022-07-31T10:37:15.141Z,50.25
2022-07-31T10:43:01.879Z,49.73
2022-07-31T10:48:11.175Z,49.02
2022-07-31T10:53:50.082Z,50.33
2022-07-31T10:59:13.044Z,49.76
2022-07-31T11:04:39.855Z,49.91
2022-07-31T11:09:51.594Z,50.32
2022-07-31T11:15:23.979Z,49.36
2022-07-31T11:21:09.460Z,49.82
2022-07-31T11:26:33.304Z,48.28
2022-07-31T11:31:42.712Z,48.99
2022-07-31T11:36:46.996Z,49.69
2022-07-31T11:41:52.613Z,49.12
2022-07-31T11:46:54.815Z,50.18
2022-07-31T11:52:03.912Z,49.68
2022-07-31T11:57:06.259Z,49.28
2022-07-31T12:02:10.790Z,48.16
2022-07-31T12:07:12.447Z,46.85
2022-07-31T12:12:14.038Z,47.50
2022-07-31T12:17:22.528Z,47.04
2022-07-31T12:22:24.085Z,47.14
2022-07-31T12:27:25.693Z,46.48
2022-07-31T12:32:28.030Z,44.48
2022-07-31T12:37:29.966Z,45.79
2022-07-31T12:42:35.302Z,44.77
2022-07-31T12:47:40.793Z,44.38
2022-07-31T12:52:42.356Z,44.64
2022-07-31T12:57:51.321Z,45.05
2022-07-31T13:02:55.923Z,42.24
2022-07-31T13:07:57.759Z,41.41
2022-07-31T13:12:59.384Z,41.83
2022-07-31T13:18:05.142Z,40.60
2022-07-31T13:23:06.753Z,41.52
2022-07-31T13:28:08.314Z,42.89
2022-07-31T13:33:09.898Z,42.83
2022-07-31T13:38:13.086Z,41.19
2022-07-31T13:43:14.637Z,41.69
2022-07-31T13:48:16.332Z,42.67
2022-07-31T13:53:17.908Z,43.08
2022-07-31T13:58:19.986Z,43.44
2022-07-31T14:03:22.011Z,43.38
2022-07-31T14:08:30.533Z,42.79
2022-07-31T14:13:46.889Z,42.76
2022-07-31T14:18:48.453Z,42.85
2022-07-31T14:23:49.997Z,42.37
2022-07-31T14:28:51.621Z,41.86
2022-07-31T14:33:54.306Z,41.00
2022-07-31T14:38:55.977Z,41.45
2022-07-31T14:43:57.566Z,40.55
2022-07-31T14:49:01.485Z,40.33
2022-07-31T14:54:03.448Z,41.38
2022-07-31T14:59:05.045Z,40.27
2022-07-31T15:04:06.669Z,40.14
2022-07-31T15:09:08.255Z,39.54
2022-07-31T15:14:09.819Z,39.40
2022-07-31T15:19:11.983Z,38.88
2022-07-31T15:24:14.552Z,39.62
2022-07-31T15:29:16.133Z,37.56
2022-07-31T15:34:17.730Z,38.01
2022-07-31T15:39:19.395Z,38.47
2022-07-31T15:44:20.944Z,38.67
2022-07-31T15:49:22.649Z,39.45
2022-07-31T15:54:24.276Z,39.45
2022-07-31T15:59:25.917Z,39.85
2022-07-31T16:04:31.447Z,40.32
2022-07-31T16:09:33.298Z,40.73
2022-07-31T16:14:35.012Z,40.91
2022-07-31T16:19:36.688Z,40.31
2022-07-31T16:24:38.262Z,40.75
2022-07-31T16:29:59.747Z,40.21
2022-07-31T16:35:01.833Z,40.41
2022-07-31T16:40:04.732Z,40.25
2022-07-31T16:45:06.689Z,40.69
2022-07-31T16:50:09.729Z,40.60
2022-07-31T16:55:11.300Z,40.92
2022-07-31T17:00:13.243Z,40.92
2022-07-31T17:05:15.137Z,41.49
2022-07-31T17:10:16.781Z,41.72
2022-07-31T17:15:18.370Z,41.24
2022-07-31T17:20:23.444Z,41.73
2022-07-31T17:25:25.312Z,41.58
2022-07-31T17:30:26.926Z,41.15
2022-07-31T17:35:28.510Z,41.94
2022-07-31T17:40:43.164Z,41.98
2022-07-31T17:46:05.464Z,42.36
2022-07-31T17:51:07.010Z,42.44
2022-07-31T17:56:12.821Z,44.27
2022-07-31T18:01:14.682Z,43.74
2022-07-31T18:06:16.708Z,43.85
2022-07-31T18:11:18.677Z,44.15
2022-07-31T18:16:22.934Z,44.03
2022-07-31T18:21:24.471Z,44.27
2022-07-31T18:26:27.079Z,44.32
2022-07-31T18:31:34.160Z,44.23
2022-07-31T18:36:37.000Z,44.49
2022-07-31T18:41:38.779Z,44.39
2022-07-31T18:46:40.627Z,44.23
2022-07-31T18:51:43.489Z,44.25
2022-07-31T18:56:45.113Z,44.44
2022-07-31T19:01:46.751Z,44.77
2022-07-31T19:06:54.082Z,44.84
2022-07-31T19:11:58.634Z,44.93
2022-07-31T19:17:01.149Z,45.45
2022-07-31T19:22:03.733Z,45.48
2022-07-31T19:27:05.603Z,45.71
2022-07-31T19:32:07.699Z,45.65
2022-07-31T19:37:09.809Z,46.20
2022-07-31T19:42:12.384Z,46.04
2022-07-31T19:47:14.044Z,46.11
2022-07-31T19:52:15.710Z,46.63
2022-07-31T19:57:18.199Z,48.05
2022-07-31T20:02:20.288Z,46.91
2022-07-31T20:07:22.581Z,46.97
2022-07-31T20:12:24.236Z,47.23
2022-07-31T20:17:27.013Z,47.25
2022-07-31T20:22:28.644Z,47.31
2022-07-31T20:27:30.398Z,47.73
2022-07-31T20:32:32.154Z,47.99
2022-07-31T20:37:35.599Z,48.30
2022-07-31T20:42:37.459Z,48.59
2022-07-31T20:47:39.044Z,49.21
2022-07-31T20:52:40.644Z,49.59
2022-07-31T20:57:42.448Z,50.36
2022-07-31T21:02:43.981Z,50.55
2022-07-31T21:07:45.659Z,51.03
2022-07-31T21:12:47.221Z,50.94
2022-07-31T21:17:48.968Z,51.13
2022-07-31T21:22:50.545Z,51.30
2022-07-31T21:27:52.247Z,51.50
2022-07-31T21:32:54.437Z,51.49
2022-07-31T21:37:57.033Z,51.51
2022-07-31T21:43:00.192Z,51.64
2022-07-31T21:48:11.462Z,51.76
2022-07-31T21:53:13.615Z,52.10
2022-07-31T21:58:15.229Z,52.76
2022-07-31T22:03:16.880Z,53.51
2022-07-31T22:08:18.735Z,54.66
2022-07-31T22:13:20.384Z,54.05
2022-07-31T22:18:22.089Z,53.83
2022-07-31T22:23:23.983Z,54.25
2022-07-31T22:28:27.028Z,54.17
2022-07-31T22:33:28.831Z,53.83
2022-07-31T22:38:31.029Z,54.23
2022-07-31T22:44:12.036Z,53.87
2022-07-31T22:48:55.402Z,53.77
2022-07-31T22:53:57.111Z,54.53
2022-07-31T22:58:58.738Z,53.97
2022-07-31T23:04:00.351Z,53.91
2022-07-31T23:09:02.160Z,54.38
2022-07-31T23:14:03.860Z,54.25
2022-07-31T23:19:05.536Z,54.08
2022-07-31T23:24:07.430Z,54.74
2022-07-31T23:29:09.062Z,54.19
2022-07-31T23:34:10.696Z,54.58
2022-07-31T23:39:12.995Z,54.60
2022-07-31T23:44:18.517Z,55.05
2022-07-31T23:49:20.305Z,54.97
2022-07-31T23:54:21.951Z,54.84
2022-07-31T23:59:23.483Z,55.28
